Time;durP1;ratioP1;P1;durP2;ratioP2;P2;SDS_P1;SDS_P2;PMS_P1;PMS_P2;Temp;Humidity;BMP_temperature;BMP_pressure;BME280_temperature;BME280_humidity;BME280_pressure;Samples;Min_cycle;Max_cycle;Signal;HPM_P1;HPM_P2
2022/08/26 00:02:19;;;;;;;3.53;0.82;;;22.10;99.90;;;;;;5066708;28;20546;-88
2022/08/26 00:04:45;;;;;;;5.00;1.33;;;22.10;99.90;;;;;;5068594;28;20171;-84
2022/08/26 00:07:10;;;;;;;4.07;1.10;;;22.10;99.90;;;;;;5071021;28;20178;-89
2022/08/26 00:09:36;;;;;;;2.17;1.00;;;22.20;99.90;;;;;;5068688;28;20167;-84
2022/08/26 00:12:04;;;;;;;3.80;0.90;;;22.10;99.90;;;;;;5081704;28;20195;-85
2022/08/26 00:14:30;;;;;;;4.03;1.00;;;22.10;99.90;;;;;;5081738;28;20151;-85
2022/08/26 00:16:56;;;;;;;2.67;0.70;;;22.00;99.90;;;;;;5065390;28;20340;-93
2022/08/26 00:19:22;;;;;;;2.03;0.85;;;22.10;99.90;;;;;;5056939;28;20634;-95
2022/08/26 00:21:48;;;;;;;4.25;0.85;;;22.10;99.90;;;;;;5056668;28;20187;-93
2022/08/26 00:24:15;;;;;;;3.85;0.93;;;22.20;99.90;;;;;;5057097;28;20217;-93
2022/08/26 00:26:40;;;;;;;1.70;0.65;;;22.20;99.90;;;;;;5057277;28;20160;-94
2022/08/26 00:29:06;;;;;;;4.75;0.80;;;22.20;99.90;;;;;;5057867;28;20697;-90
2022/08/26 00:31:32;;;;;;;3.85;1.02;;;22.00;99.90;;;;;;5057992;28;20199;-92
2022/08/26 00:33:57;;;;;;;5.05;0.73;;;22.00;99.90;;;;;;5057698;28;20199;-95
2022/08/26 00:36:23;;;;;;;6.85;1.05;;;21.90;99.90;;;;;;5057698;28;20199;-91
2022/08/26 00:38:49;;;;;;;4.15;0.75;;;21.90;99.90;;;;;;5057940;28;20164;-93
2022/08/26 00:41:18;;;;;;;4.20;0.90;;;22.00;99.90;;;;;;5056461;28;20610;-91
2022/08/26 00:43:43;;;;;;;3.22;0.85;;;22.00;99.90;;;;;;5057512;28;20206;-94
2022/08/26 00:46:15;;;;;;;4.45;1.05;;;22.00;99.90;;;;;;5056788;28;20167;-93
2022/08/26 00:49:04;;;;;;;4.78;0.82;;;22.10;99.90;;;;;;5064642;28;20156;-84
2022/08/26 00:51:34;;;;;;;1.23;0.70;;;21.90;99.90;;;;;;5046384;28;20297;-90
2022/08/26 00:54:09;;;;;;;2.45;0.65;;;22.10;99.90;;;;;;5062346;28;20191;-90
2022/08/26 00:56:42;;;;;;;5.57;0.80;;;22.00;99.90;;;;;;5064328;28;20692;-93
2022/08/26 00:59:10;;;;;;;3.15;0.70;;;21.50;99.90;;;;;;5056375;28;20175;-94
2022/08/26 01:01:38;;;;;;;2.58;0.85;;;21.60;99.90;;;;;;5056117;28;20187;-93
2022/08/26 01:04:04;;;;;;;2.67;0.75;;;21.70;99.90;;;;;;5079828;28;20186;-86
2022/08/26 01:06:30;;;;;;;1.25;0.75;;;21.80;99.90;;;;;;5080551;28;20209;-86
2022/08/26 01:08:56;;;;;;;3.50;0.80;;;21.70;99.90;;;;;;5081016;28;20163;-84
2022/08/26 01:11:23;;;;;;;3.35;0.75;;;21.60;99.90;;;;;;5080266;28;20209;-91
2022/08/26 01:13:53;;;;;;;7.47;1.25;;;21.90;99.90;;;;;;5080270;28;20183;-90
2022/08/26 01:16:19;;;;;;;2.42;0.90;;;21.80;99.90;;;;;;5076827;28;20211;-83
2022/08/26 01:18:47;;;;;;;1.38;0.85;;;21.80;99.90;;;;;;5080243;28;20182;-88
2022/08/26 01:21:27;;;;;;;3.63;1.00;;;21.90;99.90;;;;;;5079496;28;20208;-84
2022/08/26 01:23:54;;;;;;;6.95;1.00;;;21.80;99.90;;;;;;5065818;28;20676;-83
2022/08/26 01:26:28;;;;;;;8.60;0.88;;;21.70;99.90;;;;;;5054003;28;20236;-84
2022/08/26 01:28:57;;;;;;;4.35;1.38;;;21.60;99.90;;;;;;5054101;28;20197;-84
2022/08/26 01:31:28;;;;;;;4.05;1.02;;;21.40;99.90;;;;;;5055051;28;20206;-84
2022/08/26 01:34:06;;;;;;;1.52;1.00;;;21.40;99.90;;;;;;5053543;28;20167;-83
2022/08/26 01:36:32;;;;;;;3.38;0.80;;;21.40;99.90;;;;;;5053186;28;20214;-83
2022/08/26 01:38:57;;;;;;;5.88;1.33;;;21.50;99.90;;;;;;5054716;28;20171;-83
2022/08/26 01:41:24;;;;;;;5.32;1.17;;;21.40;99.90;;;;;;5053152;28;20276;-83
2022/08/26 01:43:53;;;;;;;6.65;1.30;;;21.30;99.90;;;;;;5053207;28;20186;-82
2022/08/26 01:46:21;;;;;;;3.53;0.75;;;21.30;99.90;;;;;;5053406;28;20175;-83
2022/08/26 01:48:49;;;;;;;3.78;1.00;;;21.30;99.90;;;;;;5054430;28;20275;-84
2022/08/26 01:51:17;;;;;;;1.08;0.73;;;21.30;99.90;;;;;;5053191;28;20195;-83
2022/08/26 01:53:43;;;;;;;3.80;0.95;;;21.30;99.90;;;;;;5053056;28;20551;-83
2022/08/26 01:56:10;;;;;;;3.47;1.02;;;21.40;99.90;;;;;;5053074;28;20199;-83
2022/08/26 01:58:49;;;;;;;3.60;1.63;;;21.40;99.90;;;;;;5054342;28;20246;-84
2022/08/26 02:01:15;;;;;;;3.08;0.80;;;21.30;99.90;;;;;;5052797;28;20659;-84
2022/08/26 02:04:06;;;;;;;10.27;1.23;;;21.20;99.90;;;;;;5052618;28;20174;-84
2022/08/26 02:06:32;;;;;;;4.00;0.73;;;21.30;99.90;;;;;;5052593;28;20170;-84
2022/08/26 02:09:00;;;;;;;15.45;1.00;;;21.40;99.90;;;;;;5053603;28;20179;-83
2022/08/26 02:11:26;;;;;;;3.08;0.80;;;21.50;99.90;;;;;;5053932;28;20197;-84
2022/08/26 02:14:01;;;;;;;1.33;0.80;;;21.50;99.90;;;;;;5052880;28;20174;-84
2022/08/26 02:16:30;;;;;;;1.38;0.93;;;21.50;99.90;;;;;;5052572;28;20206;-83
2022/08/26 02:18:57;;;;;;;4.95;0.70;;;21.70;99.90;;;;;;5052099;28;20175;-82
2022/08/26 02:21:23;;;;;;;6.05;0.77;;;21.80;99.90;;;;;;5052341;28;20190;-84
2022/08/26 02:23:49;;;;;;;4.78;0.90;;;21.80;99.90;;;;;;5052590;28;20531;-83
2022/08/26 02:26:20;;;;;;;6.28;0.85;;;21.80;99.90;;;;;;5053831;28;20238;-83
2022/08/26 02:28:54;;;;;;;10.57;1.45;;;21.80;99.90;;;;;;5052718;28;20267;-83
2022/08/26 02:31:19;;;;;;;7.65;1.02;;;21.90;99.90;;;;;;5053519;28;20183;-83
2022/08/26 02:33:45;;;;;;;4.68;1.00;;;21.70;99.90;;;;;;5053611;28;20186;-83
2022/08/26 02:36:11;;;;;;;4.38;0.80;;;21.60;99.90;;;;;;5053213;28;20293;-83
2022/08/26 02:38:36;;;;;;;11.18;1.85;;;21.60;99.90;;;;;;5052267;28;20250;-84
2022/08/26 02:41:02;;;;;;;3.55;0.80;;;21.50;99.90;;;;;;5053541;28;20171;-84
2022/08/26 02:43:28;;;;;;;8.45;1.23;;;21.50;99.90;;;;;;5052428;28;20174;-84
2022/08/26 02:45:53;;;;;;;5.78;0.90;;;21.50;99.90;;;;;;5051985;28;20191;-86
2022/08/26 02:48:20;;;;;;;3.72;0.95;;;21.40;99.90;;;;;;5051920;28;20166;-84
2022/08/26 02:50:49;;;;;;;3.90;1.00;;;21.30;99.90;;;;;;5051989;28;20233;-85
2022/08/26 02:53:15;;;;;;;3.40;0.82;;;21.40;99.90;;;;;;5052921;28;20179;-84
2022/08/26 02:55:41;;;;;;;5.63;1.58;;;21.40;99.90;;;;;;5051627;28;20202;-83
2022/08/26 02:58:08;;;;;;;4.25;0.82;;;21.40;99.90;;;;;;5053185;28;20703;-83
2022/08/26 03:00:38;;;;;;;3.45;0.90;;;21.40;99.90;;;;;;5052044;28;20178;-84
2022/08/26 03:03:04;;;;;;;7.13;0.90;;;21.40;99.90;;;;;;5051693;28;20193;-82
2022/08/26 03:05:30;;;;;;;4.13;1.10;;;21.20;99.90;;;;;;5051845;28;20171;-82
2022/08/26 03:07:55;;;;;;;4.13;0.95;;;21.20;99.90;;;;;;5052035;28;20167;-84
2022/08/26 03:10:22;;;;;;;3.08;0.70;;;21.30;99.90;;;;;;5053153;28;20194;-85
2022/08/26 03:12:48;;;;;;;2.17;1.10;;;21.40;99.90;;;;;;5051904;28;20213;-84
2022/08/26 03:15:15;;;;;;;5.30;1.08;;;21.40;99.90;;;;;;5052119;28;20655;-84
2022/08/26 03:17:41;;;;;;;4.00;1.00;;;21.40;99.90;;;;;;5051483;28;20167;-85
2022/08/26 03:20:08;;;;;;;8.00;1.13;;;21.30;99.90;;;;;;5053335;28;20171;-92
2022/08/26 03:22:34;;;;;;;3.03;0.90;;;21.30;99.90;;;;;;5052519;28;20191;-83
2022/08/26 03:25:02;;;;;;;6.78;1.63;;;21.30;99.90;;;;;;5053923;28;20171;-92
2022/08/26 03:27:27;;;;;;;4.05;1.33;;;21.40;99.90;;;;;;5052959;28;20182;-84
2022/08/26 03:32:37;;;;;;;5.00;1.30;;;21.40;99.90;;;;;;5054057;28;20732;-83
2022/08/26 03:35:03;;;;;;;3.45;0.93;;;21.30;99.90;;;;;;5053464;28;20237;-94
2022/08/26 03:37:28;;;;;;;5.80;0.90;;;21.30;99.90;;;;;;5052787;28;20167;-83
2022/08/26 03:39:54;;;;;;;3.30;1.02;;;21.30;99.90;;;;;;5052184;28;20280;-93
2022/08/26 03:42:20;;;;;;;4.03;1.00;;;21.30;99.90;;;;;;5053736;28;20187;-83
2022/08/26 03:44:46;;;;;;;2.35;1.13;;;21.30;99.90;;;;;;5052250;28;20174;-93
2022/08/26 03:47:12;;;;;;;3.38;1.20;;;21.40;99.90;;;;;;5053139;28;20168;-83
2022/08/26 03:49:37;;;;;;;4.10;0.95;;;21.30;99.90;;;;;;5052451;28;20530;-90
2022/08/26 03:52:03;;;;;;;5.57;1.25;;;21.20;99.90;;;;;;5052955;28;20195;-94
2022/08/26 03:54:29;;;;;;;3.20;0.90;;;21.10;99.90;;;;;;5052554;28;20540;-95
2022/08/26 03:56:54;;;;;;;5.15;1.10;;;21.10;99.90;;;;;;5052593;28;20179;-86
2022/08/26 03:59:20;;;;;;;6.38;1.30;;;21.10;99.90;;;;;;5054698;28;20170;-91
2022/08/26 04:01:46;;;;;;;2.00;0.88;;;21.00;99.90;;;;;;5061885;28;20191;-86
2022/08/26 04:04:11;;;;;;;2.85;0.80;;;21.00;99.90;;;;;;5062932;28;20179;-92
2022/08/26 04:06:43;;;;;;;3.92;1.08;;;21.00;99.90;;;;;;5053794;28;20270;-92
2022/08/26 04:09:12;;;;;;;12.75;1.17;;;21.10;99.90;;;;;;5054781;28;20218;-83
2022/08/26 04:11:38;;;;;;;2.33;0.98;;;21.10;99.90;;;;;;5052464;28;20186;-94
2022/08/26 04:14:15;;;;;;;7.57;0.77;;;21.10;99.90;;;;;;5051963;28;20608;-84
2022/08/26 04:16:42;;;;;;;1.42;0.82;;;21.00;99.90;;;;;;5052616;28;20207;-83
2022/08/26 04:19:09;;;;;;;2.35;0.75;;;21.00;99.90;;;;;;5051407;28;20262;-91
2022/08/26 04:21:37;;;;;;;7.53;0.93;;;21.10;99.90;;;;;;5050707;28;20201;-83
2022/08/26 04:24:07;;;;;;;3.17;1.30;;;21.10;99.90;;;;;;5051173;28;20163;-83
2022/08/26 04:26:36;;;;;;;5.05;1.15;;;21.10;99.90;;;;;;5051392;28;20258;-83
2022/08/26 04:29:04;;;;;;;3.97;1.10;;;21.20;99.90;;;;;;5051150;28;20163;-82
2022/08/26 04:31:30;;;;;;;4.97;0.98;;;21.30;99.90;;;;;;5051115;28;20225;-83
2022/08/26 04:33:55;;;;;;;4.85;1.13;;;21.50;99.90;;;;;;5051053;28;20171;-84
2022/08/26 04:36:24;;;;;;;7.55;1.50;;;21.30;99.90;;;;;;5051018;28;20246;-83
2022/08/26 04:38:50;;;;;;;7.47;0.90;;;21.20;99.90;;;;;;5052549;28;20702;-82
2022/08/26 04:41:17;;;;;;;3.58;1.05;;;21.30;99.90;;;;;;5054099;28;20187;-84
2022/08/26 04:43:43;;;;;;;10.43;1.42;;;21.20;99.90;;;;;;5054215;28;20212;-84
2022/08/26 04:46:10;;;;;;;5.90;1.23;;;21.20;99.90;;;;;;5054272;28;20171;-83
2022/08/26 04:48:36;;;;;;;3.47;1.08;;;21.20;99.90;;;;;;5054876;28;20254;-84
2022/08/26 04:51:03;;;;;;;0.70;0.70;;;21.10;99.90;;;;;;5054546;28;20316;-83
2022/08/26 04:53:29;;;;;;;1.02;0.73;;;21.00;99.90;;;;;;5054644;28;20190;-88
2022/08/26 04:55:55;;;;;;;2.90;0.50;;;21.00;99.90;;;;;;5055244;28;20252;-84
2022/08/26 04:58:23;;;;;;;2.10;0.90;;;21.00;99.90;;;;;;5055698;28;20199;-83
2022/08/26 05:00:51;;;;;;;3.90;1.20;;;21.00;99.90;;;;;;5054415;28;20174;-84
2022/08/26 05:03:17;;;;;;;10.48;1.33;;;21.10;99.90;;;;;;5055941;28;20250;-83
2022/08/26 05:05:45;;;;;;;1.55;0.80;;;21.00;99.90;;;;;;5054147;28;20171;-84
2022/08/26 05:08:12;;;;;;;2.30;0.95;;;21.10;99.90;;;;;;5053982;28;20199;-83
2022/08/26 05:10:40;;;;;;;7.95;1.17;;;21.20;99.90;;;;;;5053965;28;20171;-83
2022/08/26 05:13:05;;;;;;;4.65;1.58;;;21.40;99.90;;;;;;5055338;28;20187;-83
2022/08/26 05:15:32;;;;;;;1.77;0.90;;;21.50;99.90;;;;;;5053988;28;20249;-83
2022/08/26 05:17:58;;;;;;;3.95;0.70;;;21.60;99.90;;;;;;5053831;28;20281;-83
2022/08/26 05:20:24;;;;;;;1.35;0.60;;;21.60;99.90;;;;;;5053640;28;20270;-84
2022/08/26 05:22:49;;;;;;;3.40;0.70;;;21.50;99.90;;;;;;5053518;28;20244;-83
2022/08/26 05:25:16;;;;;;;6.32;1.30;;;21.50;99.90;;;;;;5054921;28;20163;-83
2022/08/26 05:27:41;;;;;;;2.97;0.82;;;21.40;99.90;;;;;;5053582;28;20159;-83
2022/08/26 05:30:08;;;;;;;3.63;0.55;;;21.20;99.90;;;;;;5054637;28;20168;-83
2022/08/26 05:32:33;;;;;;;4.45;0.90;;;21.20;99.90;;;;;;5053303;28;20244;-83
2022/08/26 05:34:59;;;;;;;2.58;0.68;;;21.30;99.90;;;;;;5053352;28;20195;-84
2022/08/26 05:37:24;;;;;;;3.25;0.93;;;21.20;99.90;;;;;;5054564;28;20167;-83
2022/08/26 05:39:50;;;;;;;3.17;0.82;;;21.10;99.90;;;;;;5052954;28;20628;-83
2022/08/26 05:42:16;;;;;;;6.57;1.10;;;21.10;99.90;;;;;;5054574;28;20198;-83
2022/08/26 05:44:41;;;;;;;4.03;0.50;;;21.10;99.90;;;;;;5053446;28;20167;-83
2022/08/26 05:47:07;;;;;;;2.45;0.80;;;21.20;99.90;;;;;;5054508;28;20174;-83
2022/08/26 05:49:32;;;;;;;6.32;1.00;;;21.10;99.90;;;;;;5054309;28;20474;-85
2022/08/26 05:51:58;;;;;;;3.05;0.88;;;21.00;99.90;;;;;;5053573;28;20199;-84
2022/08/26 05:54:23;;;;;;;2.58;0.63;;;21.10;99.90;;;;;;5053188;28;20171;-83
2022/08/26 05:56:52;;;;;;;14.40;0.90;;;21.10;99.90;;;;;;5054157;28;20217;-83
2022/08/26 05:59:18;;;;;;;5.47;0.80;;;21.10;99.90;;;;;;5053014;28;20178;-83
2022/08/26 06:01:43;;;;;;;4.70;0.90;;;21.10;99.90;;;;;;5052940;28;20274;-82
2022/08/26 06:04:10;;;;;;;4.22;0.88;;;21.10;99.90;;;;;;5052920;28;20632;-84
2022/08/26 06:06:40;;;;;;;4.78;0.95;;;21.10;99.90;;;;;;5053073;28;20178;-86
2022/08/26 06:09:06;;;;;;;3.78;1.23;;;21.10;99.90;;;;;;5052413;28;20648;-82
2022/08/26 06:11:33;;;;;;;1.75;1.00;;;21.30;99.90;;;;;;5052661;28;20205;-83
2022/08/26 06:14:01;;;;;;;2.70;0.95;;;21.30;99.90;;;;;;5052942;28;20719;-82
2022/08/26 06:16:28;;;;;;;4.57;1.10;;;21.30;99.90;;;;;;5052616;28;20242;-83
2022/08/26 06:18:53;;;;;;;4.97;0.68;;;21.40;99.90;;;;;;5052686;28;20171;-85
2022/08/26 06:21:32;;;;;;;2.88;1.02;;;21.10;99.90;;;;;;5053287;28;20239;-82
2022/08/26 06:26:56;;;;;;;15.60;1.33;;;21.30;99.90;;;;;;5054630;28;20610;-84
2022/08/26 06:29:24;;;;;;;2.38;0.55;;;21.40;99.90;;;;;;5052313;28;20171;-83
2022/08/26 06:31:50;;;;;;;3.92;1.10;;;21.50;99.90;;;;;;5052268;28;20199;-82
2022/08/26 06:34:16;;;;;;;3.70;0.60;;;21.60;99.90;;;;;;5052414;28;20171;-82
2022/08/26 06:36:43;;;;;;;4.13;0.70;;;21.60;99.90;;;;;;5053551;28;20202;-83
2022/08/26 06:39:11;;;;;;;7.63;1.00;;;21.60;99.90;;;;;;5054053;28;20235;-82
2022/08/26 06:41:37;;;;;;;3.67;0.80;;;21.80;99.90;;;;;;5052278;28;20644;-83
2022/08/26 06:44:05;;;;;;;9.13;0.63;;;22.00;99.90;;;;;;5052410;28;20635;-83
2022/08/26 06:46:32;;;;;;;3.42;0.95;;;22.10;99.90;;;;;;5052238;28;20234;-81
2022/08/26 06:48:58;;;;;;;9.75;0.75;;;22.00;99.90;;;;;;5053424;28;20644;-83
2022/08/26 06:51:27;;;;;;;7.90;0.70;;;22.00;99.90;;;;;;5051827;28;20191;-82
2022/08/26 06:53:55;;;;;;;4.03;0.75;;;22.00;99.90;;;;;;5051749;28;20497;-82
2022/08/26 06:56:23;;;;;;;1.30;0.60;;;21.90;99.90;;;;;;5044581;28;20191;-83
2022/08/26 06:58:49;;;;;;;6.28;0.93;;;21.80;99.90;;;;;;5032301;28;20168;-83
2022/08/26 07:01:16;;;;;;;3.05;0.80;;;22.00;99.90;;;;;;5033020;28;20544;-86
2022/08/26 07:03:42;;;;;;;7.85;0.70;;;22.20;99.90;;;;;;5032083;28;20183;-82
2022/08/26 07:06:07;;;;;;;4.65;0.57;;;21.90;99.90;;;;;;5032398;28;20171;-85
2022/08/26 07:08:33;;;;;;;31.13;2.42;;;21.90;99.90;;;;;;5033411;28;20171;-83
2022/08/26 07:11:04;;;;;;;13.20;1.27;;;21.90;99.90;;;;;;5032240;28;20176;-84
2022/08/26 07:13:29;;;;;;;62.33;5.03;;;21.90;99.90;;;;;;5033124;28;20636;-83
2022/08/26 07:15:56;;;;;;;261.02;15.82;;;21.90;99.90;;;;;;5032005;28;20203;-83
2022/08/26 07:18:22;;;;;;;4.97;1.23;;;22.00;99.90;;;;;;5032492;28;20263;-84
2022/08/26 07:20:47;;;;;;;10.75;1.30;;;22.10;99.90;;;;;;5032557;28;20251;-85
2022/08/26 07:23:13;;;;;;;1.10;0.63;;;22.20;99.90;;;;;;5032109;28;20206;-85
2022/08/26 07:25:40;;;;;;;1.35;0.82;;;22.30;99.90;;;;;;5031975;28;20168;-85
2022/08/26 07:28:07;;;;;;;0.77;0.50;;;22.30;99.90;;;;;;5032530;28;20233;-84
2022/08/26 07:30:37;;;;;;;2.40;0.80;;;22.30;99.90;;;;;;5032078;28;20171;-88
2022/08/26 07:33:03;;;;;;;7.80;0.90;;;22.30;99.90;;;;;;5034110;28;20187;-85
2022/08/26 07:35:29;;;;;;;3.60;0.70;;;22.30;99.90;;;;;;5031743;28;20207;-86
2022/08/26 07:37:54;;;;;;;3.90;1.00;;;22.20;99.90;;;;;;5032175;28;20172;-84
2022/08/26 07:40:20;;;;;;;4.72;1.00;;;22.00;99.90;;;;;;5032360;28;20182;-84
2022/08/26 07:42:46;;;;;;;4.05;0.68;;;22.00;99.90;;;;;;5032069;28;20533;-84
2022/08/26 07:45:12;;;;;;;3.38;0.75;;;21.90;99.90;;;;;;5033145;28;20213;-85
2022/08/26 07:47:38;;;;;;;5.13;0.77;;;21.90;99.90;;;;;;5031764;28;20632;-85
2022/08/26 07:50:04;;;;;;;1.70;0.73;;;21.90;99.90;;;;;;5032549;28;20627;-85
2022/08/26 07:52:31;;;;;;;107.55;4.32;;;22.00;99.90;;;;;;5031159;28;20234;-84
2022/08/26 07:54:59;;;;;;;8.88;0.68;;;22.10;99.90;;;;;;5040293;28;20187;-85
2022/08/26 07:57:26;;;;;;;30.90;1.40;;;22.30;99.90;;;;;;5038055;28;20584;-88
2022/08/26 07:59:53;;;;;;;12.45;1.30;;;22.50;99.90;;;;;;5037015;28;20271;-83
2022/08/26 08:02:19;;;;;;;9.60;0.77;;;22.60;99.90;;;;;;5040542;28;20192;-92
2022/08/26 08:04:45;;;;;;;4.28;0.75;;;22.60;99.90;;;;;;5044748;28;20167;-92
2022/08/26 08:07:10;;;;;;;6.90;0.50;;;22.60;99.90;;;;;;5041779;28;20160;-94
2022/08/26 08:09:36;;;;;;;4.85;1.02;;;23.00;99.90;;;;;;5035519;28;20993;-92
2022/08/26 08:12:02;;;;;;;11.68;1.77;;;23.30;99.90;;;;;;5037935;28;20195;-88
2022/08/26 08:14:28;;;;;;;16.50;1.27;;;23.10;99.90;;;;;;5043330;28;20217;-87
2022/08/26 08:16:54;;;;;;;20.08;0.88;;;23.10;99.90;;;;;;5043212;28;20203;-89
2022/08/26 08:19:19;;;;;;;6.45;0.70;;;22.90;99.90;;;;;;5043564;28;20164;-91
2022/08/26 08:21:45;;;;;;;6.05;0.95;;;23.10;99.90;;;;;;5040003;28;20188;-84
2022/08/26 08:24:11;;;;;;;3.40;1.10;;;23.10;99.90;;;;;;5040483;28;20532;-88
2022/08/26 08:26:37;;;;;;;2.63;0.90;;;23.00;99.90;;;;;;5037263;28;20160;-88
2022/08/26 08:29:03;;;;;;;13.35;0.95;;;22.80;99.90;;;;;;5037457;28;20168;-93
2022/08/26 08:31:32;;;;;;;3.40;0.60;;;23.20;99.90;;;;;;5042738;28;20219;-91
2022/08/26 08:33:57;;;;;;;4.18;0.63;;;23.00;99.90;;;;;;5036244;28;20172;-86
2022/08/26 08:36:23;;;;;;;9.32;0.80;;;22.70;99.90;;;;;;5035771;28;20215;-87
2022/08/26 08:38:49;;;;;;;2.25;0.68;;;22.60;99.90;;;;;;5036177;28;20175;-87
2022/08/26 08:41:39;;;;;;;2.05;0.60;;;22.60;99.90;;;;;;5035786;28;20237;-87
2022/08/26 08:44:14;;;;;;;1.35;0.50;;;22.30;99.90;;;;;;5036120;28;20168;-86
2022/08/26 08:46:42;;;;;;;0.40;0.22;;;22.20;99.90;;;;;;5036148;28;20636;-86
2022/08/26 08:49:09;;;;;;;1.40;0.60;;;22.20;99.90;;;;;;5035945;28;20337;-86
2022/08/26 08:51:39;;;;;;;2.60;0.70;;;22.20;99.90;;;;;;5035380;28;20199;-87
2022/08/26 08:54:06;;;;;;;2.22;0.80;;;22.30;99.90;;;;;;5052557;28;20183;-86
2022/08/26 08:56:46;;;;;;;2.88;0.50;;;22.50;99.90;;;;;;5036755;28;20206;-86
2022/08/26 08:59:15;;;;;;;3.13;0.50;;;22.40;99.90;;;;;;5035312;28;20179;-87
2022/08/26 09:02:02;;;;;;;3.58;0.70;;;22.40;99.90;;;;;;5036703;28;20188;-86
2022/08/26 09:04:50;;;;;;;4.85;0.60;;;22.50;99.90;;;;;;5036680;28;20172;-86
2022/08/26 09:07:25;;;;;;;5.22;0.70;;;22.70;99.90;;;;;;5035761;28;20251;-88
2022/08/26 09:09:57;;;;;;;7.60;0.70;;;22.90;99.90;;;;;;5036268;28;20167;-87
2022/08/26 09:12:27;;;;;;;22.55;1.85;;;23.00;99.90;;;;;;5035966;28;20192;-85
2022/08/26 09:14:59;;;;;;;4.78;0.85;;;23.10;99.90;;;;;;5036760;28;20164;-88
2022/08/26 09:17:30;;;;;;;6.50;0.70;;;23.00;99.90;;;;;;5036877;28;20172;-88
2022/08/26 09:20:30;;;;;;;2.30;0.75;;;22.90;99.90;;;;;;5035614;28;20172;-87
2022/08/26 09:22:56;;;;;;;10.50;0.80;;;23.00;99.90;;;;;;5036072;28;20207;-88
2022/08/26 09:25:23;;;;;;;5.50;0.70;;;23.00;99.90;;;;;;5035470;28;20258;-87
2022/08/26 09:27:51;;;;;;;10.27;0.65;;;23.20;99.90;;;;;;5033862;28;20250;-88
2022/08/26 09:30:33;;;;;;;9.52;1.48;;;23.20;99.90;;;;;;5040166;28;20174;-86
2022/08/26 09:33:07;;;;;;;5.30;0.52;;;23.10;99.90;;;;;;5036570;28;20653;-86
2022/08/26 09:35:39;;;;;;;5.18;0.50;;;22.80;99.90;;;;;;5035399;28;20239;-86
2022/08/26 09:38:26;;;;;;;1.90;0.45;;;22.60;99.90;;;;;;5034754;28;20259;-86
2022/08/26 09:41:01;;;;;;;1.33;0.63;;;22.70;99.90;;;;;;5035003;28;20174;-85
2022/08/26 09:43:27;;;;;;;8.70;0.55;;;22.60;99.90;;;;;;5035318;28;20229;-87
2022/08/26 09:46:18;;;;;;;21.70;1.05;;;22.90;99.90;;;;;;5035178;28;20208;-86
2022/08/26 09:48:44;;;;;;;5.55;0.65;;;23.00;99.90;;;;;;5034613;28;20168;-88
2022/08/26 09:51:18;;;;;;;20.20;1.58;;;23.10;99.90;;;;;;5034292;28;20176;-85
2022/08/26 09:53:53;;;;;;;7.20;0.65;;;23.20;99.90;;;;;;5033960;28;20249;-86
2022/08/26 09:56:34;;;;;;;10.05;0.73;;;23.40;99.90;;;;;;5034066;28;20232;-85
2022/08/26 09:59:02;;;;;;;8.20;0.85;;;23.70;99.90;;;;;;5034132;28;20174;-85
2022/08/26 10:01:32;;;;;;;1.50;0.40;;;23.90;99.90;;;;;;5034316;28;20227;-85
2022/08/26 10:04:03;;;;;;;3.90;0.50;;;23.20;99.90;;;;;;5034348;28;20265;-85
2022/08/26 10:06:29;;;;;;;3.22;0.50;;;22.80;99.90;;;;;;5034053;28;20532;-84
2022/08/26 10:08:58;;;;;;;3.88;0.50;;;22.50;99.90;;;;;;5034112;28;20170;-85
2022/08/26 10:11:38;;;;;;;2.75;0.70;;;22.70;99.90;;;;;;5034174;28;20246;-86
2022/08/26 10:14:20;;;;;;;7.45;0.70;;;22.80;99.90;;;;;;5034006;28;20625;-86
2022/08/26 10:17:03;;;;;;;0.82;0.30;;;22.70;99.90;;;;;;5034012;28;20215;-85
2022/08/26 10:19:50;;;;;;;0.90;0.70;;;22.80;99.90;;;;;;5033638;28;20164;-87
2022/08/26 10:22:31;;;;;;;7.68;0.85;;;23.10;99.90;;;;;;5033654;28;20214;-86
2022/08/26 10:25:00;;;;;;;2.00;0.50;;;23.40;99.90;;;;;;5034607;28;20174;-81
2022/08/26 10:27:46;;;;;;;4.88;0.60;;;23.60;99.90;;;;;;5035467;28;20222;-82
2022/08/26 10:30:18;;;;;;;2.75;0.70;;;23.80;99.90;;;;;;5035962;28;20251;-82
2022/08/26 10:33:05;;;;;;;2.25;0.50;;;23.60;99.90;;;;;;5035818;28;20191;-81
2022/08/26 10:35:34;;;;;;;6.22;0.50;;;23.60;99.90;;;;;;5035041;28;20265;-82
2022/08/26 10:38:09;;;;;;;3.47;1.42;;;23.60;99.90;;;;;;5035966;28;20660;-82
2022/08/26 10:40:45;;;;;;;1.73;0.40;;;23.70;99.90;;;;;;5039615;28;20166;-82
2022/08/26 10:43:36;;;;;;;5.70;0.50;;;23.80;99.90;;;;;;5037513;28;20191;-82
2022/08/26 10:46:07;;;;;;;3.88;0.52;;;23.60;99.90;;;;;;5034047;28;20221;-82
2022/08/26 10:48:35;;;;;;;1.70;0.60;;;23.40;99.90;;;;;;5034279;28;20222;-83
2022/08/26 10:51:02;;;;;;;3.70;0.40;;;23.40;99.90;;;;;;5033044;28;20226;-84
2022/08/26 10:53:45;;;;;;;2.65;0.40;;;23.60;99.90;;;;;;5050022;28;20180;-84
2022/08/26 10:56:36;;;;;;;3.10;0.80;;;23.70;99.90;;;;;;5032812;28;20219;-82
2022/08/26 10:59:35;;;;;;;0.22;0.20;;;23.70;99.90;;;;;;5032445;28;20203;-83
2022/08/26 11:02:31;;;;;;;7.78;0.80;;;23.70;99.90;;;;;;5033322;28;20750;-82
2022/08/26 11:04:58;;;;;;;7.57;0.60;;;24.30;99.90;;;;;;5033500;28;20537;-82
2022/08/26 11:07:36;;;;;;;6.32;0.52;;;24.50;99.90;;;;;;5033414;28;20201;-83
2022/08/26 11:10:07;;;;;;;1.38;0.50;;;24.80;99.90;;;;;;5035337;28;20258;-81
2022/08/26 11:12:35;;;;;;;3.60;0.20;;;25.10;99.90;;;;;;5033170;28;20266;-82
2022/08/26 11:15:12;;;;;;;1.60;0.60;;;24.90;99.90;;;;;;5035583;28;20619;-84
2022/08/26 11:17:47;;;;;;;0.85;0.32;;;24.80;99.90;;;;;;5034904;28;20528;-83
2022/08/26 11:20:35;;;;;;;1.58;0.40;;;24.50;99.90;;;;;;5032776;28;20249;-89
2022/08/26 11:23:12;;;;;;;1.40;0.80;;;24.50;99.90;;;;;;5034332;28;20686;-90
2022/08/26 11:26:10;;;;;;;3.83;0.57;;;24.80;99.90;;;;;;5034002;28;20188;-85
2022/08/26 11:28:44;;;;;;;1.95;0.57;;;24.40;99.90;;;;;;5021036;28;20208;-82
2022/08/26 11:31:13;;;;;;;0.60;0.50;;;24.10;99.90;;;;;;5034776;28;20167;-84
2022/08/26 11:33:45;;;;;;;33.38;2.38;;;24.40;99.90;;;;;;5035357;28;20213;-93
2022/08/26 11:36:37;;;;;;;0.95;0.32;;;24.90;99.90;;;;;;5036861;28;20766;-94
2022/08/26 11:39:30;;;;;;;1.80;0.55;;;25.10;99.90;;;;;;5034572;28;20176;-95
2022/08/26 11:42:13;;;;;;;4.40;0.40;;;25.00;99.90;;;;;;5037454;28;20218;-93
2022/08/26 11:44:42;;;;;;;0.68;0.30;;;25.10;99.90;;;;;;5039858;28;20544;-89
2022/08/26 11:47:10;;;;;;;5.15;0.80;;;24.90;99.90;;;;;;5044029;28;20218;-84
2022/08/26 11:49:36;;;;;;;1.50;0.60;;;24.90;99.90;;;;;;5054394;28;20178;-86
2022/08/26 11:52:18;;;;;;;0.90;0.55;;;25.20;99.90;;;;;;5049742;28;20195;-87
2022/08/26 11:55:07;;;;;;;3.03;0.57;;;25.60;99.90;;;;;;5034992;28;20190;-92
2022/08/26 11:57:40;;;;;;;1.65;0.40;;;25.30;99.90;;;;;;5031451;28;20180;-86
2022/08/26 12:00:11;;;;;;;2.40;0.80;;;25.10;99.90;;;;;;5032661;28;20214;-83
2022/08/26 12:02:39;;;;;;;10.65;1.13;;;24.90;99.90;;;;;;5032783;28;20215;-86
2022/08/26 12:05:06;;;;;;;2.22;0.82;;;25.00;99.90;;;;;;5032096;28;20298;-86
2022/08/26 12:07:32;;;;;;;2.05;0.63;;;25.40;99.90;;;;;;5032370;28;20179;-85
2022/08/26 12:10:01;;;;;;;1.70;0.40;;;25.70;99.90;;;;;;5032685;28;20210;-89
2022/08/26 12:12:31;;;;;;;0.93;0.32;;;26.00;99.90;;;;;;5033565;28;20290;-89
2022/08/26 12:15:09;;;;;;;1.45;0.50;;;26.00;99.90;;;;;;5052850;28;20181;-90
2022/08/26 12:17:35;;;;;;;6.47;0.50;;;26.10;99.90;;;;;;5060209;28;20175;-87
2022/08/26 12:20:01;;;;;;;1.80;0.57;;;26.40;99.90;;;;;;5057971;28;20182;-87
2022/08/26 12:22:30;;;;;;;3.03;0.63;;;26.20;99.90;;;;;;5052566;28;20191;-85
2022/08/26 12:25:07;;;;;;;6.28;0.68;;;26.30;99.90;;;;;;5032715;28;20168;-94
2022/08/26 12:27:38;;;;;;;3.53;0.65;;;26.60;99.90;;;;;;5031773;28;20175;-87
2022/08/26 12:30:10;;;;;;;4.78;0.68;;;26.70;99.90;;;;;;5033971;28;20168;-88
2022/08/26 12:32:42;;;;;;;2.45;1.05;;;26.70;99.90;;;;;;5034763;28;20191;-86
2022/08/26 12:35:13;;;;;;;4.90;0.90;;;26.00;99.90;;;;;;5053121;28;20258;-86
2022/08/26 12:37:42;;;;;;;7.53;1.08;;;25.30;99.90;;;;;;5052092;28;20570;-89
2022/08/26 12:40:45;;;;;;;5.10;0.70;;;24.90;99.90;;;;;;5052108;28;20208;-90
2022/08/26 12:43:15;;;;;;;2.30;0.90;;;25.20;99.90;;;;;;5033531;28;20210;-81
2022/08/26 12:45:54;;;;;;;1.45;0.70;;;25.30;99.90;;;;;;5064041;28;20194;-85
2022/08/26 12:48:29;;;;;;;1.90;1.45;;;25.70;99.90;;;;;;5054720;28;20265;-88
2022/08/26 12:50:56;;;;;;;4.20;0.80;;;25.70;99.90;;;;;;5054858;28;20171;-81
2022/08/26 12:53:25;;;;;;;2.55;1.25;;;25.70;99.90;;;;;;5054508;28;20198;-81
2022/08/26 12:56:23;;;;;;;3.75;0.90;;;25.20;99.90;;;;;;5056462;28;20188;-83
2022/08/26 12:59:03;;;;;;;2.70;1.23;;;24.80;99.90;;;;;;5054802;28;20164;-85
2022/08/26 13:01:36;;;;;;;8.05;1.35;;;25.00;99.90;;;;;;5057186;28;20171;-85
2022/08/26 13:04:02;;;;;;;3.58;0.93;;;25.10;99.90;;;;;;5059087;28;20179;-83
2022/08/26 13:06:29;;;;;;;11.18;1.33;;;25.40;99.90;;;;;;5055312;28;20210;-82